createdAt,value
2023-04-04T00:01:37.592Z,2.70
2023-04-04T00:04:25.566Z,2.78
2023-04-04T00:07:15.210Z,2.55
2023-04-04T00:10:02.840Z,2.53
2023-04-04T00:12:50.887Z,2.70
2023-04-04T00:15:38.708Z,2.60
2023-04-04T00:18:25.919Z,2.72
2023-04-04T00:21:13.775Z,2.50
2023-04-04T00:24:03.167Z,2.75
2023-04-04T00:26:51.191Z,2.57
2023-04-04T00:29:38.822Z,2.70
2023-04-04T00:32:26.266Z,2.80
2023-04-04T00:35:13.672Z,2.80
2023-04-04T00:38:00.801Z,2.90
2023-04-04T00:40:52.455Z,2.80
2023-04-04T00:43:40.261Z,2.70
2023-04-04T00:46:29.528Z,3.00
2023-04-04T00:49:16.951Z,3.00
2023-04-04T00:52:07.300Z,2.75
2023-04-04T00:54:55.905Z,3.00
2023-04-04T00:57:44.388Z,2.90
2023-04-04T01:00:34.446Z,2.90
2023-04-04T01:03:23.609Z,2.80
2023-04-04T01:06:10.607Z,3.03
2023-04-04T01:08:58.040Z,2.80
2023-04-04T01:11:45.638Z,2.90
2023-04-04T01:14:35.631Z,2.60
2023-04-04T01:17:23.608Z,2.80
2023-04-04T01:20:15.885Z,2.80
2023-04-04T01:23:12.825Z,3.08
2023-04-04T01:26:05.750Z,2.70
2023-04-04T01:28:54.843Z,2.90
2023-04-04T01:31:49.309Z,2.83
2023-04-04T01:34:44.420Z,2.90
2023-04-04T01:37:37.490Z,3.08
2023-04-04T01:40:30.019Z,2.90
2023-04-04T01:43:18.975Z,3.03
2023-04-04T01:46:07.027Z,3.00
2023-04-04T01:48:56.385Z,2.95
2023-04-04T01:51:49.366Z,2.88
2023-04-04T01:54:37.191Z,3.10
2023-04-04T01:57:24.412Z,2.97
2023-04-04T02:00:15.732Z,2.90
2023-04-04T02:03:03.003Z,3.08
2023-04-04T02:05:50.273Z,3.00
2023-04-04T02:08:38.390Z,2.97
2023-04-04T02:11:25.965Z,2.88
2023-04-04T02:14:13.172Z,2.90
2023-04-04T02:17:01.438Z,3.03
2023-04-04T02:19:48.529Z,3.40
2023-04-04T02:22:35.485Z,3.40
2023-04-04T02:25:23.996Z,3.30
2023-04-04T02:28:11.562Z,3.47
2023-04-04T02:31:02.790Z,3.35
2023-04-04T02:33:51.794Z,3.58
2023-04-04T02:36:41.184Z,3.20
2023-04-04T02:39:28.914Z,3.50
2023-04-04T02:42:16.339Z,3.13
2023-04-04T02:45:04.811Z,3.38
2023-04-04T02:47:52.543Z,3.17
2023-04-04T02:50:47.437Z,3.10
2023-04-04T02:53:35.372Z,3.60
2023-04-04T02:56:33.589Z,2.92
2023-04-04T02:59:21.517Z,3.60
2023-04-04T03:02:08.774Z,3.25
2023-04-04T03:04:55.926Z,3.00
2023-04-04T03:07:44.376Z,2.92
2023-04-04T03:10:31.804Z,3.35
2023-04-04T03:13:19.093Z,3.33
2023-04-04T03:16:07.784Z,3.22
2023-04-04T03:19:06.320Z,3.38
2023-04-04T03:21:53.796Z,3.03
2023-04-04T03:24:42.273Z,3.60
2023-04-04T03:27:29.570Z,3.50
2023-04-04T03:30:17.153Z,3.70
2023-04-04T03:33:08.710Z,3.58
2023-04-04T03:35:56.515Z,3.37
2023-04-04T03:38:43.792Z,3.40
2023-04-04T03:41:32.538Z,3.42
2023-04-04T03:44:19.555Z,3.67
2023-04-04T03:47:07.116Z,3.53
2023-04-04T03:49:56.169Z,3.40
2023-04-04T03:52:44.085Z,3.38
2023-04-04T03:55:31.209Z,3.57
2023-04-04T03:58:21.497Z,3.38
2023-04-04T04:01:09.048Z,3.50
2023-04-04T04:03:56.789Z,3.28
2023-04-04T04:06:44.201Z,3.20
2023-04-04T04:09:31.159Z,3.53
2023-04-04T04:12:18.417Z,3.55
2023-04-04T04:15:08.022Z,3.45
2023-04-04T04:17:55.622Z,3.10
2023-04-04T04:20:45.314Z,3.30
2023-04-04T04:23:32.766Z,3.50
2023-04-04T04:26:21.396Z,3.50
2023-04-04T04:29:09.017Z,3.67
2023-04-04T04:31:58.412Z,3.47
2023-04-04T04:34:49.736Z,3.60
2023-04-04T04:37:41.062Z,3.35
2023-04-04T04:40:29.179Z,3.53
2023-04-04T04:43:26.191Z,3.60
2023-04-04T04:46:14.979Z,3.70
2023-04-04T04:49:03.705Z,3.30
2023-04-04T04:51:51.407Z,3.63
2023-04-04T04:54:40.650Z,3.92
2023-04-04T04:57:28.902Z,3.90
2023-04-04T05:00:20.277Z,3.80
2023-04-04T05:03:08.673Z,3.80
2023-04-04T05:06:07.679Z,3.53
2023-04-04T05:08:56.321Z,3.65
2023-04-04T05:11:57.357Z,3.47
2023-04-04T05:14:53.082Z,3.38
2023-04-04T05:17:40.872Z,3.47
2023-04-04T05:20:29.162Z,3.90
2023-04-04T05:23:20.771Z,3.90
2023-04-04T05:26:08.335Z,3.90
2023-04-04T05:28:59.814Z,3.72
2023-04-04T05:31:48.603Z,3.78
2023-04-04T05:34:40.063Z,3.85
2023-04-04T05:37:33.633Z,4.30
2023-04-04T05:40:23.929Z,4.68
2023-04-04T05:43:18.577Z,4.70
2023-04-04T05:46:15.701Z,4.47
2023-04-04T05:49:07.679Z,4.70
2023-04-04T05:51:58.576Z,4.70
2023-04-04T05:54:47.476Z,4.78
2023-04-04T05:57:50.450Z,5.05
2023-04-04T06:00:43.756Z,5.17
2023-04-04T06:03:31.066Z,5.38
2023-04-04T06:06:20.517Z,4.95
2023-04-04T06:09:09.282Z,4.63
2023-04-04T06:11:56.570Z,5.10
2023-04-04T06:14:45.059Z,4.40
2023-04-04T06:17:32.585Z,4.78
2023-04-04T06:20:21.429Z,4.60
2023-04-04T06:23:10.234Z,5.15
2023-04-04T06:26:00.971Z,5.05
2023-04-04T06:28:49.842Z,4.57
2023-04-04T06:31:43.126Z,4.38
2023-04-04T06:34:36.032Z,4.72
2023-04-04T06:37:23.706Z,5.00
2023-04-04T06:40:17.420Z,4.47
2023-04-04T06:43:05.199Z,4.40
2023-04-04T06:46:01.333Z,4.53
2023-04-04T06:48:49.983Z,4.80
2023-04-04T06:51:38.296Z,4.90
2023-04-04T06:54:26.739Z,4.80
2023-04-04T06:57:21.961Z,4.63
2023-04-04T07:00:10.440Z,4.60
2023-04-04T07:03:01.317Z,4.57
2023-04-04T07:05:51.452Z,4.97
2023-04-04T07:08:38.915Z,4.75
2023-04-04T07:11:27.418Z,4.47
2023-04-04T07:14:15.035Z,4.53
2023-04-04T07:17:10.567Z,4.40
2023-04-04T07:20:05.358Z,4.30
2023-04-04T07:22:54.428Z,4.40
2023-04-04T07:25:44.367Z,4.30
2023-04-04T07:28:32.467Z,4.43
2023-04-04T07:31:20.514Z,4.30
2023-04-04T07:34:07.613Z,4.38
2023-04-04T07:36:55.241Z,4.22
2023-04-04T07:39:43.914Z,3.97
2023-04-04T07:42:31.128Z,4.10
2023-04-04T07:45:18.757Z,3.47
2023-04-04T07:48:06.579Z,3.57
2023-04-04T07:50:54.719Z,3.43
2023-04-04T07:53:41.839Z,3.58
2023-04-04T07:56:31.016Z,3.25
2023-04-04T07:59:18.495Z,3.17
2023-04-04T08:02:06.591Z,3.50
2023-04-04T08:04:54.821Z,3.10
2023-04-04T08:07:42.778Z,3.40
2023-04-04T08:10:30.803Z,2.67
2023-04-04T08:13:19.968Z,2.90
2023-04-04T08:16:08.058Z,2.90
2023-04-04T08:18:56.509Z,2.83
2023-04-04T08:21:45.752Z,3.17
2023-04-04T08:24:32.852Z,2.97
2023-04-04T08:27:20.591Z,2.67
2023-04-04T08:30:11.285Z,3.53
2023-04-04T08:32:58.418Z,3.00
2023-04-04T08:35:45.482Z,3.10
2023-04-04T08:38:33.051Z,2.90
2023-04-04T08:41:20.783Z,2.90
2023-04-04T08:44:10.364Z,3.00
2023-04-04T08:47:01.230Z,3.17
2023-04-04T08:49:50.851Z,3.05
2023-04-04T08:52:40.653Z,2.67
2023-04-04T08:55:28.477Z,2.97
2023-04-04T08:58:17.465Z,2.90
2023-04-04T09:01:06.377Z,3.03
2023-04-04T09:03:55.876Z,3.00
2023-04-04T09:06:44.438Z,3.05
2023-04-04T09:09:33.024Z,2.80
2023-04-04T09:12:22.631Z,2.90
2023-04-04T09:15:12.251Z,3.47
2023-04-04T09:17:59.567Z,3.05
2023-04-04T09:20:48.806Z,3.30
2023-04-04T09:23:36.972Z,3.00
2023-04-04T09:26:24.178Z,2.90
2023-04-04T09:29:11.830Z,2.90
2023-04-04T09:31:59.977Z,3.00
2023-04-04T09:34:47.126Z,3.23
2023-04-04T09:37:36.456Z,3.17
2023-04-04T09:40:26.506Z,3.20
2023-04-04T09:43:15.509Z,3.50
2023-04-04T09:46:04.221Z,3.20
2023-04-04T09:48:52.105Z,3.30
2023-04-04T09:51:42.706Z,3.17
2023-04-04T09:54:32.909Z,3.30
2023-04-04T09:57:21.565Z,3.30
2023-04-04T10:00:11.229Z,3.10
2023-04-04T10:02:59.197Z,3.40
2023-04-04T10:05:47.172Z,3.20
2023-04-04T10:08:35.483Z,3.40
2023-04-04T10:11:33.744Z,3.38
2023-04-04T10:14:36.117Z,3.80
2023-04-04T10:17:24.529Z,3.25
2023-04-04T10:20:13.245Z,3.38
2023-04-04T10:23:02.052Z,3.15
2023-04-04T10:25:49.851Z,3.27
2023-04-04T10:28:39.503Z,3.00
2023-04-04T10:31:28.685Z,3.20
2023-04-04T10:34:23.354Z,3.10
2023-04-04T10:37:14.776Z,3.30
2023-04-04T10:40:09.413Z,3.20
2023-04-04T10:42:58.462Z,3.20
2023-04-04T10:45:48.186Z,2.80
2023-04-04T10:48:36.459Z,3.00
2023-04-04T10:51:24.403Z,3.50
2023-04-04T10:54:12.623Z,3.13
2023-04-04T10:57:02.260Z,2.95
2023-04-04T11:00:00.272Z,3.33
2023-04-04T11:02:51.963Z,3.40
2023-04-04T11:05:46.860Z,3.17
2023-04-04T11:08:37.508Z,3.20
2023-04-04T11:11:28.505Z,3.40
2023-04-04T11:14:17.708Z,2.90
2023-04-04T11:17:06.650Z,3.45
2023-04-04T11:20:01.680Z,3.05
2023-04-04T11:22:51.554Z,3.20
2023-04-04T11:25:41.309Z,3.20
2023-04-04T11:28:45.584Z,2.93
2023-04-04T11:31:35.797Z,2.90
2023-04-04T11:34:34.151Z,3.17
2023-04-04T11:37:24.259Z,2.67
2023-04-04T11:40:14.010Z,3.15
2023-04-04T11:43:04.315Z,3.08
2023-04-04T11:45:51.397Z,3.05
2023-04-04T11:48:41.030Z,3.50
2023-04-04T11:51:29.550Z,3.20
2023-04-04T11:54:18.977Z,3.28
2023-04-04T11:57:08.297Z,3.22
2023-04-04T11:59:56.260Z,3.03
2023-04-04T12:02:43.944Z,3.20
2023-04-04T12:05:32.087Z,3.60
2023-04-04T12:08:19.151Z,3.30
2023-04-04T12:11:10.714Z,3.47
2023-04-04T12:13:58.687Z,3.50
2023-04-04T12:16:48.777Z,3.33
2023-04-04T12:19:38.859Z,3.28
2023-04-04T12:22:26.291Z,3.30
2023-04-04T12:25:13.851Z,3.70
2023-04-04T12:28:05.074Z,3.40
2023-04-04T12:30:53.807Z,3.47
2023-04-04T12:33:43.707Z,3.20
2023-04-04T12:36:31.572Z,3.30
2023-04-04T12:39:21.004Z,3.30
2023-04-04T12:42:12.403Z,3.60
2023-04-04T12:45:04.451Z,3.30
2023-04-04T12:47:54.052Z,3.50
2023-04-04T12:50:53.283Z,3.20
2023-04-04T12:53:53.757Z,3.40
2023-04-04T12:56:42.937Z,3.58
2023-04-04T12:59:31.129Z,3.38
2023-04-04T13:02:23.311Z,3.35
2023-04-04T13:05:11.469Z,3.70
2023-04-04T13:08:07.782Z,3.42
2023-04-04T13:11:04.128Z,3.40
2023-04-04T13:14:03.904Z,3.67
2023-04-04T13:17:04.445Z,3.50
2023-04-04T13:19:53.962Z,3.70
2023-04-04T13:22:42.705Z,3.47
2023-04-04T13:25:30.622Z,3.63
2023-04-04T13:28:18.290Z,3.83
2023-04-04T13:31:06.828Z,3.70
2023-04-04T13:33:54.353Z,3.30
2023-04-04T13:36:42.931Z,3.25
2023-04-04T13:39:29.825Z,3.63
2023-04-04T13:42:16.722Z,3.53
2023-04-04T13:45:04.531Z,3.60
2023-04-04T13:47:52.392Z,3.65
2023-04-04T13:50:42.415Z,3.50
2023-04-04T13:53:31.255Z,3.90
2023-04-04T13:56:19.459Z,3.80
2023-04-04T13:59:06.970Z,3.83
2023-04-04T14:01:54.904Z,4.00
2023-04-04T14:04:42.761Z,4.00
2023-04-04T14:07:30.233Z,3.80
2023-04-04T14:10:18.885Z,3.70
2023-04-04T14:13:05.799Z,3.88
2023-04-04T14:15:53.043Z,4.18
2023-04-04T14:18:41.101Z,3.70
2023-04-04T14:21:29.943Z,3.85
2023-04-04T14:24:17.574Z,3.92
2023-04-04T14:27:07.026Z,3.92
2023-04-04T14:29:54.366Z,4.03
2023-04-04T14:32:42.327Z,3.90
2023-04-04T14:35:30.525Z,4.00
2023-04-04T14:38:18.378Z,4.30
2023-04-04T14:41:06.107Z,3.85
2023-04-04T14:43:55.975Z,4.15
2023-04-04T14:46:43.455Z,3.72
2023-04-04T14:49:31.344Z,4.10
2023-04-04T14:52:18.885Z,3.85
2023-04-04T14:55:09.374Z,3.63
2023-04-04T14:58:02.419Z,4.18
2023-04-04T15:00:53.009Z,4.20
2023-04-04T15:03:39.891Z,4.03
2023-04-04T15:06:28.000Z,4.00
2023-04-04T15:09:16.473Z,4.22
2023-04-04T15:12:04.098Z,4.07
2023-04-04T15:14:51.811Z,4.00
2023-04-04T15:17:41.006Z,3.70
2023-04-04T15:20:28.543Z,3.50
2023-04-04T15:23:15.954Z,3.85
2023-04-04T15:26:03.872Z,3.50
2023-04-04T15:28:51.485Z,3.53
2023-04-04T15:31:38.751Z,3.90
2023-04-04T15:34:27.892Z,3.92
2023-04-04T15:37:16.238Z,3.70
2023-04-04T15:40:03.589Z,3.63
2023-04-04T15:42:51.398Z,3.67
2023-04-04T15:45:39.894Z,4.00
2023-04-04T15:48:27.174Z,3.90
2023-04-04T15:51:18.005Z,3.83
2023-04-04T15:54:05.501Z,4.00
2023-04-04T15:56:53.345Z,3.50
2023-04-04T15:59:41.055Z,3.75
2023-04-04T16:02:28.691Z,3.83
2023-04-04T16:05:16.545Z,4.03
2023-04-04T16:08:05.100Z,3.72
2023-04-04T16:10:52.547Z,3.88
2023-04-04T16:13:39.888Z,4.10
2023-04-04T16:16:27.827Z,3.97
2023-04-04T16:19:17.099Z,4.28
2023-04-04T16:22:05.564Z,4.38
2023-04-04T16:24:53.992Z,4.10
2023-04-04T16:27:40.982Z,3.97
2023-04-04T16:30:29.727Z,4.50
2023-04-04T16:33:17.426Z,4.45
2023-04-04T16:36:05.164Z,4.33
2023-04-04T16:38:52.322Z,4.40
2023-04-04T16:41:41.799Z,4.50
2023-04-04T16:44:29.343Z,4.47
2023-04-04T16:47:16.873Z,5.30
2023-04-04T16:50:04.491Z,4.65
2023-04-04T16:52:52.335Z,4.25
2023-04-04T16:55:39.648Z,4.63
2023-04-04T16:58:28.180Z,4.50
2023-04-04T17:01:16.709Z,4.22
2023-04-04T17:04:04.656Z,4.30
2023-04-04T17:06:51.816Z,4.65
2023-04-04T17:09:38.772Z,4.45
2023-04-04T17:12:27.219Z,4.32
2023-04-04T17:15:17.945Z,4.70
2023-04-04T17:18:06.055Z,4.90
2023-04-04T17:20:54.058Z,5.13
2023-04-04T17:23:41.018Z,5.10
2023-04-04T17:26:28.852Z,5.00
2023-04-04T17:29:17.387Z,5.10
2023-04-04T17:32:07.329Z,4.72
2023-04-04T17:34:56.155Z,4.70
2023-04-04T17:37:43.724Z,4.80
2023-04-04T17:40:31.616Z,4.57
2023-04-04T17:43:19.808Z,4.72
2023-04-04T17:46:07.372Z,4.80
2023-04-04T17:48:56.950Z,5.10
2023-04-04T17:51:44.092Z,4.47
2023-04-04T17:54:32.032Z,4.97
2023-04-04T17:57:19.644Z,4.30
2023-04-04T18:00:09.445Z,4.80
2023-04-04T18:02:58.249Z,4.20
2023-04-04T18:05:47.222Z,4.20
2023-04-04T18:08:34.648Z,4.97
2023-04-04T18:11:22.186Z,5.00
2023-04-04T18:14:09.816Z,4.90
2023-04-04T18:16:57.450Z,4.72
2023-04-04T18:19:44.726Z,4.28
2023-04-04T18:22:34.449Z,4.15
2023-04-04T18:25:21.769Z,4.10
2023-04-04T18:28:08.992Z,4.33
2023-04-04T18:30:57.024Z,4.03
2023-04-04T18:33:43.936Z,4.35
2023-04-04T18:36:31.602Z,4.43
2023-04-04T18:39:20.874Z,4.57
2023-04-04T18:42:08.681Z,5.05
2023-04-04T18:44:56.209Z,5.35
2023-04-04T18:47:43.702Z,6.25
2023-04-04T18:50:31.270Z,5.65
2023-04-04T18:53:19.105Z,5.60
2023-04-04T18:56:07.865Z,5.60
2023-04-04T18:58:55.373Z,6.00
2023-04-04T19:01:43.087Z,6.00
2023-04-04T19:04:31.213Z,6.75
2023-04-04T19:07:21.937Z,9.77
2023-04-04T19:10:10.450Z,6.13
2023-04-04T19:12:59.593Z,5.70
2023-04-04T19:15:47.235Z,13.23
2023-04-04T19:18:35.043Z,7.00
2023-04-04T19:21:22.896Z,5.43
2023-04-04T19:24:11.770Z,5.18
2023-04-04T19:26:59.577Z,5.30
2023-04-04T19:29:48.975Z,5.20
2023-04-04T19:32:37.016Z,4.50
2023-04-04T19:35:55.030Z,4.80
2023-04-04T19:38:44.420Z,5.10
2023-04-04T19:41:36.003Z,4.80
2023-04-04T19:44:23.174Z,4.57
2023-04-04T19:47:11.926Z,4.93
2023-04-04T19:49:59.144Z,5.13
2023-04-04T19:52:47.916Z,5.30
2023-04-04T19:55:40.797Z,5.82
2023-04-04T19:58:29.142Z,5.47
2023-04-04T20:01:21.587Z,5.80
2023-04-04T20:04:10.115Z,6.47
2023-04-04T20:06:58.052Z,6.07
2023-04-04T20:09:47.822Z,6.10
2023-04-04T20:12:35.311Z,6.50
2023-04-04T20:15:55.878Z,6.75
2023-04-04T20:18:45.335Z,6.90
2023-04-04T20:21:33.990Z,6.80
2023-04-04T20:24:22.307Z,7.00
2023-04-04T20:27:12.722Z,6.63
2023-04-04T20:30:00.046Z,6.90
2023-04-04T20:32:47.338Z,7.38
2023-04-04T20:35:35.139Z,6.85
2023-04-04T20:38:23.765Z,6.80
2023-04-04T20:41:19.597Z,7.10
2023-04-04T20:44:19.809Z,6.90
2023-04-04T20:47:28.854Z,7.53
2023-04-04T20:50:43.434Z,7.70
2023-04-04T20:53:32.782Z,7.38
2023-04-04T20:56:52.411Z,7.53
2023-04-04T20:59:43.794Z,6.93
2023-04-04T21:02:31.355Z,6.90
2023-04-04T21:05:27.842Z,6.82
2023-04-04T21:08:39.656Z,7.00
2023-04-04T21:11:30.207Z,7.10
2023-04-04T21:14:23.147Z,6.63
2023-04-04T21:17:13.710Z,6.93
2023-04-04T21:20:00.719Z,6.55
2023-04-04T21:22:50.920Z,6.35
2023-04-04T21:25:45.410Z,6.22
2023-04-04T21:28:35.410Z,6.18
2023-04-04T21:31:25.507Z,6.22
2023-04-04T21:34:16.677Z,6.50
2023-04-04T21:37:07.680Z,6.53
2023-04-04T21:40:00.482Z,6.35
2023-04-04T21:42:47.903Z,6.67
2023-04-04T21:45:35.537Z,6.57
2023-04-04T21:48:23.678Z,6.43
2023-04-04T21:51:12.618Z,6.33
2023-04-04T21:54:01.480Z,6.67
2023-04-04T21:56:49.352Z,7.28
2023-04-04T21:59:37.591Z,7.50
2023-04-04T22:02:25.122Z,7.07
2023-04-04T22:05:12.949Z,6.93
2023-04-04T22:08:01.887Z,7.03
2023-04-04T22:10:52.385Z,6.40
2023-04-04T22:13:47.058Z,6.70
2023-04-04T22:16:37.252Z,6.68
2023-04-04T22:19:24.497Z,6.38
2023-04-04T22:22:12.025Z,6.53
2023-04-04T22:25:06.005Z,6.80
2023-04-04T22:27:53.875Z,7.18
2023-04-04T22:30:42.651Z,7.53
2023-04-04T22:33:31.480Z,7.47
2023-04-04T22:36:19.603Z,7.13
2023-04-04T22:39:07.565Z,7.50
2023-04-04T22:41:56.414Z,8.15
2023-04-04T22:44:44.555Z,8.35
2023-04-04T22:47:32.167Z,8.75
2023-04-04T22:50:23.035Z,8.55
2023-04-04T22:53:13.046Z,9.38
2023-04-04T22:56:01.218Z,9.88
2023-04-04T22:58:51.319Z,11.63
2023-04-04T23:01:39.275Z,11.10
2023-04-04T23:04:27.316Z,10.25
2023-04-04T23:07:15.621Z,10.25
2023-04-04T23:10:03.409Z,10.00
2023-04-04T23:12:51.515Z,10.13
2023-04-04T23:15:41.582Z,9.77
2023-04-04T23:18:30.470Z,9.50
2023-04-04T23:21:18.403Z,10.20
2023-04-04T23:24:07.189Z,9.68
2023-04-04T23:26:54.904Z,9.60
2023-04-04T23:29:43.130Z,9.40
2023-04-04T23:32:32.563Z,9.45
2023-04-04T23:35:20.745Z,9.52
2023-04-04T23:38:13.323Z,8.80
2023-04-04T23:41:01.242Z,8.98
2023-04-04T23:43:48.958Z,9.07
2023-04-04T23:46:36.965Z,9.35
2023-04-04T23:49:25.975Z,9.25
2023-04-04T23:52:13.821Z,9.38
2023-04-04T23:55:01.607Z,9.15
2023-04-04T23:57:49.245Z,8.80
